ADDS METAR Data INFO
IDs: Format: Raw Decoded Include TAF

Data at: 1549 UTC 12 Dec 2017

KAPF 121453Z 16006KT 10SM CLR 18/10 A3011 RMK AO2 SLP193 T01780100 50001
KAPF 121353Z 14005KT 10SM FEW002 14/07 A3011 RMK AO2 SLP195 T01390072
KAPF 121253Z 15003KT 10SM CLR 09/08 A3011 RMK AO2 SLP194 T00940083
KAPF 121153Z 00000KT 10SM CLR 08/07 A3010 RMK AO2 SLP192 T00780067 10100 20078 55000
KAPF 121053Z AUTO 00000KT 10SM CLR 08/07 A3010 RMK AO2 SLP190 T00830072
KAPF 120953Z AUTO 00000KT 10SM CLR 08/07 A3009 RMK AO2 SLP189 T00830072
KAPF 120853Z AUTO 00000KT 10SM CLR 08/07 A3011 RMK AO2 SLP193 T00780067 56018
KAPF 120753Z AUTO 00000KT 10SM CLR 08/07 A3012 RMK AO2 SLP198 T00780072
KAPF 120653Z AUTO 35003KT 10SM CLR 10/08 A3013 RMK AO2 SLP202 T01000078
KAPF 120553Z AUTO 00000KT 10SM CLR 10/08 A3016 RMK AO2 SLP210 T01000078 10150 20100 58012
KAPF 120453Z AUTO 00000KT 10SM CLR 11/08 A3017 RMK AO2 SLP214 T01060078 401830056
KAPF 120353Z AUTO 00000KT 10SM CLR 10/08 A3018 RMK AO2 SLP219 T01000083
KAPF 120253Z AUTO 00000KT 10SM CLR 11/08 A3019 RMK AO2 SLP222 T01060078 51004
KAPF 120153Z 36003KT 10SM CLR 13/07 A3019 RMK AO2 SLP222 T01280072
KAPF 120053Z AUTO 02003KT 10SM CLR 14/07 A3018 RMK AO2 SLP219 T01390067
KAPF 112353Z AUTO 34003KT 10SM CLR 15/08 A3018 RMK AO2 SLP218 T01500078 10183 20150 53005
KAPF 112253Z AUTO 32004KT 10SM CLR 16/07 A3017 RMK AO2 SLP215 T01610072
KAPF 112153Z AUTO 31006KT 10SM CLR 17/07 A3017 RMK AO2 SLP215 T01720072
KAPF 112053Z AUTO 31008KT 10SM CLR 18/07 A3016 RMK AO2 SLP213 T01780067 56015
KAPF 111953Z 31008KT 10SM CLR 18/06 A3018 RMK AO2 SLP217 T01780061
KAPF 111853Z 33007KT 10SM CLR 17/06 A3019 RMK AO2 SLP221 T01720061
KAPF 111753Z 03006KT 10SM CLR 18/05 A3021 RMK AO2 SLP228 T01780050 10178 20056 58028
KAPF 111653Z 04008KT 10SM CLR 17/06 A3025 RMK AO2 SLP243 T01670061
KAPF 111553Z 36008KT 10SM CLR 16/06 A3028 RMK AO2 SLP253 T01560061
KAPF 111453Z 04010KT 10SM CLR 13/06 A3029 RMK AO2 SLP256 T01330061 50002
KAPF 111353Z 05008KT 10SM CLR 11/05 A3030 RMK AO2 SLP257 T01110050
KAPF 111253Z 03005KT 10SM CLR 08/04 A3029 RMK AO2 SLP256 T00830044
KAPF 111153Z 05004KT 10SM CLR 06/04 A3029 RMK AO2 SLP254 T00560039 10089 20056 53008
KAPF 111053Z AUTO 06004KT 10SM CLR 06/04 A3028 RMK AO2 SLP252 T00560039
KAPF 110953Z AUTO 05003KT 10SM CLR 06/04 A3027 RMK AO2 SLP248 T00610039
KAPF 110853Z AUTO 03004KT 10SM CLR 07/04 A3026 RMK AO2 SLP246 T00670039 58008
KAPF 110753Z AUTO 36005KT 10SM CLR 08/02 A3028 RMK AO2 SLP251 T00780022
KAPF 110653Z AUTO 35004KT 10SM CLR 08/03 A3028 RMK AO2 SLP253 T00830033
KAPF 110553Z AUTO 36006KT 10SM CLR 09/03 A3029 RMK AO2 SLP255 T00890028 10117 20083 58012
KAPF 110453Z AUTO 36006KT 10SM CLR 09/05 A3030 RMK AO2 SLP260 T00940050 401500078
KAPF 110353Z AUTO 00000KT 10SM CLR 09/07 A3032 RMK AO2 SLP265 T00890067